sensor_id;sensor_type;location;lat;lon;timestamp;temperature;humidity
16871;DHT22;8552;48.120;-1.456;2023-08-07T00:01:54;11.20;99.90
16871;DHT22;8552;48.120;-1.456;2023-08-07T00:04:20;11.20;99.90
16871;DHT22;8552;48.120;-1.456;2023-08-07T00:06:45;11.20;99.90
16871;DHT22;8552;48.120;-1.456;2023-08-07T00:09:11;11.10;99.90
16871;DHT22;8552;48.120;-1.456;2023-08-07T00:11:37;11.10;99.90
16871;DHT22;8552;48.120;-1.456;2023-08-07T00:14:02;11.10;99.90
16871;DHT22;8552;48.120;-1.456;2023-08-07T00:16:28;11.10;99.90
16871;DHT22;8552;48.120;-1.456;2023-08-07T00:18:54;11.00;99.90
16871;DHT22;8552;48.120;-1.456;2023-08-07T00:21:22;11.00;99.90
16871;DHT22;8552;48.120;-1.456;2023-08-07T00:23:49;10.90;99.90
16871;DHT22;8552;48.120;-1.456;2023-08-07T00:26:15;10.90;99.90
16871;DHT22;8552;48.120;-1.456;2023-08-07T00:28:41;10.90;99.90
16871;DHT22;8552;48.120;-1.456;2023-08-07T00:31:07;10.90;99.90
16871;DHT22;8552;48.120;-1.456;2023-08-07T00:33:32;10.80;99.90
16871;DHT22;8552;48.120;-1.456;2023-08-07T00:35:58;10.80;99.90
16871;DHT22;8552;48.120;-1.456;2023-08-07T00:38:24;10.80;99.90
16871;DHT22;8552;48.120;-1.456;2023-08-07T00:40:49;10.80;99.90
16871;DHT22;8552;48.120;-1.456;2023-08-07T00:43:15;10.70;99.90
16871;DHT22;8552;48.120;-1.456;2023-08-07T00:45:42;10.70;99.90
16871;DHT22;8552;48.120;-1.456;2023-08-07T00:48:09;10.70;99.90
16871;DHT22;8552;48.120;-1.456;2023-08-07T00:50:35;10.60;99.90
16871;DHT22;8552;48.120;-1.456;2023-08-07T00:53:01;10.60;99.90
16871;DHT22;8552;48.120;-1.456;2023-08-07T00:55:28;10.60;99.90
16871;DHT22;8552;48.120;-1.456;2023-08-07T00:57:54;10.50;99.90
16871;DHT22;8552;48.120;-1.456;2023-08-07T01:00:20;10.50;99.90
16871;DHT22;8552;48.120;-1.456;2023-08-07T01:02:47;10.50;99.90
16871;DHT22;8552;48.120;-1.456;2023-08-07T01:05:17;10.50;99.90
16871;DHT22;8552;48.120;-1.456;2023-08-07T01:07:43;10.50;99.90
16871;DHT22;8552;48.120;-1.456;2023-08-07T01:10:09;10.40;99.90
16871;DHT22;8552;48.120;-1.456;2023-08-07T01:12:52;10.40;99.90
16871;DHT22;8552;48.120;-1.456;2023-08-07T01:15:25;10.40;99.90
16871;DHT22;8552;48.120;-1.456;2023-08-07T01:17:54;10.40;99.90
16871;DHT22;8552;48.120;-1.456;2023-08-07T01:20:20;10.30;99.90
16871;DHT22;8552;48.120;-1.456;2023-08-07T01:22:46;10.30;99.90
16871;DHT22;8552;48.120;-1.456;2023-08-07T01:25:12;10.30;99.90
16871;DHT22;8552;48.120;-1.456;2023-08-07T01:27:53;10.20;99.90
16871;DHT22;8552;48.120;-1.456;2023-08-07T01:30:38;10.20;99.90
16871;DHT22;8552;48.120;-1.456;2023-08-07T01:35:47;10.10;99.90
16871;DHT22;8552;48.120;-1.456;2023-08-07T01:38:13;10.10;99.90
16871;DHT22;8552;48.120;-1.456;2023-08-07T01:40:40;10.10;99.90
16871;DHT22;8552;48.120;-1.456;2023-08-07T01:43:07;10.10;99.90
16871;DHT22;8552;48.120;-1.456;2023-08-07T01:45:33;10.10;99.90
16871;DHT22;8552;48.120;-1.456;2023-08-07T01:47:59;10.10;99.90
16871;DHT22;8552;48.120;-1.456;2023-08-07T01:50:25;10.10;99.90
16871;DHT22;8552;48.120;-1.456;2023-08-07T01:52:52;10.10;99.90
16871;DHT22;8552;48.120;-1.456;2023-08-07T01:55:19;10.00;99.90
16871;DHT22;8552;48.120;-1.456;2023-08-07T01:57:45;10.00;99.90
16871;DHT22;8552;48.120;-1.456;2023-08-07T02:00:11;10.00;99.90
16871;DHT22;8552;48.120;-1.456;2023-08-07T02:02:37;9.90;99.90
16871;DHT22;8552;48.120;-1.456;2023-08-07T02:05:03;9.90;99.90
16871;DHT22;8552;48.120;-1.456;2023-08-07T02:07:30;9.90;99.90
16871;DHT22;8552;48.120;-1.456;2023-08-07T02:09:56;9.90;99.90
16871;DHT22;8552;48.120;-1.456;2023-08-07T02:12:22;9.80;99.90
16871;DHT22;8552;48.120;-1.456;2023-08-07T02:14:48;9.80;99.90
16871;DHT22;8552;48.120;-1.456;2023-08-07T02:17:13;9.70;99.90
16871;DHT22;8552;48.120;-1.456;2023-08-07T02:19:39;9.80;99.90
16871;DHT22;8552;48.120;-1.456;2023-08-07T02:22:05;9.80;99.90
16871;DHT22;8552;48.120;-1.456;2023-08-07T02:24:31;9.80;99.90
16871;DHT22;8552;48.120;-1.456;2023-08-07T02:26:57;9.70;99.90
16871;DHT22;8552;48.120;-1.456;2023-08-07T02:29:23;9.80;99.90
16871;DHT22;8552;48.120;-1.456;2023-08-07T02:31:48;9.80;99.90
16871;DHT22;8552;48.120;-1.456;2023-08-07T02:34:14;9.80;99.90
16871;DHT22;8552;48.120;-1.456;2023-08-07T02:36:40;9.70;99.90
16871;DHT22;8552;48.120;-1.456;2023-08-07T02:39:06;9.70;99.90
16871;DHT22;8552;48.120;-1.456;2023-08-07T02:41:32;9.60;99.90
16871;DHT22;8552;48.120;-1.456;2023-08-07T02:43:58;9.60;99.90
16871;DHT22;8552;48.120;-1.456;2023-08-07T02:46:25;9.60;99.90
16871;DHT22;8552;48.120;-1.456;2023-08-07T02:48:50;9.60;99.90
16871;DHT22;8552;48.120;-1.456;2023-08-07T02:51:16;9.50;99.90
16871;DHT22;8552;48.120;-1.456;2023-08-07T02:53:42;9.50;99.90
16871;DHT22;8552;48.120;-1.456;2023-08-07T02:56:07;9.50;99.90
16871;DHT22;8552;48.120;-1.456;2023-08-07T02:58:33;9.50;99.90
16871;DHT22;8552;48.120;-1.456;2023-08-07T03:01:05;9.50;99.90
16871;DHT22;8552;48.120;-1.456;2023-08-07T03:03:32;9.60;99.90
16871;DHT22;8552;48.120;-1.456;2023-08-07T03:05:57;9.50;99.90
16871;DHT22;8552;48.120;-1.456;2023-08-07T03:08:23;9.50;99.90
16871;DHT22;8552;48.120;-1.456;2023-08-07T03:10:57;9.40;99.90
16871;DHT22;8552;48.120;-1.456;2023-08-07T03:13:23;9.40;99.90
16871;DHT22;8552;48.120;-1.456;2023-08-07T03:15:49;9.40;99.90
16871;DHT22;8552;48.120;-1.456;2023-08-07T03:18:19;9.40;99.90
16871;DHT22;8552;48.120;-1.456;2023-08-07T03:20:44;9.40;99.90
16871;DHT22;8552;48.120;-1.456;2023-08-07T03:23:10;9.30;99.90
16871;DHT22;8552;48.120;-1.456;2023-08-07T03:25:36;9.40;99.90
16871;DHT22;8552;48.120;-1.456;2023-08-07T03:28:03;9.30;99.90
16871;DHT22;8552;48.120;-1.456;2023-08-07T03:30:28;9.30;99.90
16871;DHT22;8552;48.120;-1.456;2023-08-07T03:32:54;9.30;99.90
16871;DHT22;8552;48.120;-1.456;2023-08-07T03:35:20;9.30;99.90
16871;DHT22;8552;48.120;-1.456;2023-08-07T03:37:45;9.30;99.90
16871;DHT22;8552;48.120;-1.456;2023-08-07T03:40:11;9.30;99.90
16871;DHT22;8552;48.120;-1.456;2023-08-07T03:42:37;9.20;99.90
16871;DHT22;8552;48.120;-1.456;2023-08-07T03:45:03;9.20;99.90
16871;DHT22;8552;48.120;-1.456;2023-08-07T03:47:29;9.10;99.90
16871;DHT22;8552;48.120;-1.456;2023-08-07T03:49:54;9.10;99.90
16871;DHT22;8552;48.120;-1.456;2023-08-07T03:52:20;9.10;99.90
16871;DHT22;8552;48.120;-1.456;2023-08-07T03:54:52;9.10;99.90
16871;DHT22;8552;48.120;-1.456;2023-08-07T03:57:18;9.10;99.90
16871;DHT22;8552;48.120;-1.456;2023-08-07T03:59:43;9.00;99.90
16871;DHT22;8552;48.120;-1.456;2023-08-07T04:02:11;9.00;99.90
16871;DHT22;8552;48.120;-1.456;2023-08-07T04:04:37;9.00;99.90
16871;DHT22;8552;48.120;-1.456;2023-08-07T04:07:03;9.00;99.90
16871;DHT22;8552;48.120;-1.456;2023-08-07T04:09:28;8.90;99.90
16871;DHT22;8552;48.120;-1.456;2023-08-07T04:11:54;8.90;99.90
16871;DHT22;8552;48.120;-1.456;2023-08-07T04:14:20;8.90;99.90
16871;DHT22;8552;48.120;-1.456;2023-08-07T04:16:46;8.90;99.90
16871;DHT22;8552;48.120;-1.456;2023-08-07T04:19:11;8.90;99.90
16871;DHT22;8552;48.120;-1.456;2023-08-07T04:21:37;8.80;99.90
16871;DHT22;8552;48.120;-1.456;2023-08-07T04:24:03;8.80;99.90
16871;DHT22;8552;48.120;-1.456;2023-08-07T04:26:37;8.90;99.90
16871;DHT22;8552;48.120;-1.456;2023-08-07T04:29:03;8.80;99.90
16871;DHT22;8552;48.120;-1.456;2023-08-07T04:31:29;8.90;99.90
16871;DHT22;8552;48.120;-1.456;2023-08-07T04:33:57;8.90;99.90
16871;DHT22;8552;48.120;-1.456;2023-08-07T04:36:23;8.80;99.90
16871;DHT22;8552;48.120;-1.456;2023-08-07T04:38:49;8.80;99.90
16871;DHT22;8552;48.120;-1.456;2023-08-07T04:41:15;8.80;99.90
16871;DHT22;8552;48.120;-1.456;2023-08-07T04:43:41;8.70;99.90
16871;DHT22;8552;48.120;-1.456;2023-08-07T04:46:10;8.70;99.90
16871;DHT22;8552;48.120;-1.456;2023-08-07T04:48:36;8.70;99.90
16871;DHT22;8552;48.120;-1.456;2023-08-07T04:51:02;8.70;99.90
16871;DHT22;8552;48.120;-1.456;2023-08-07T04:53:28;8.60;99.90
16871;DHT22;8552;48.120;-1.456;2023-08-07T04:55:54;8.60;99.90
16871;DHT22;8552;48.120;-1.456;2023-08-07T04:58:19;8.60;99.90
16871;DHT22;8552;48.120;-1.456;2023-08-07T05:00:45;8.60;99.90
16871;DHT22;8552;48.120;-1.456;2023-08-07T05:03:11;8.60;99.90
16871;DHT22;8552;48.120;-1.456;2023-08-07T05:05:37;8.60;99.90
16871;DHT22;8552;48.120;-1.456;2023-08-07T05:08:03;8.60;99.90
16871;DHT22;8552;48.120;-1.456;2023-08-07T05:10:29;8.70;99.90
16871;DHT22;8552;48.120;-1.456;2023-08-07T05:12:55;8.60;99.90
16871;DHT22;8552;48.120;-1.456;2023-08-07T05:15:25;8.70;99.90
16871;DHT22;8552;48.120;-1.456;2023-08-07T05:17:51;8.70;99.90
16871;DHT22;8552;48.120;-1.456;2023-08-07T05:20:17;8.80;99.90
16871;DHT22;8552;48.120;-1.456;2023-08-07T05:22:43;8.90;99.90
16871;DHT22;8552;48.120;-1.456;2023-08-07T05:25:09;9.00;99.90
16871;DHT22;8552;48.120;-1.456;2023-08-07T05:27:37;9.00;99.90
16871;DHT22;8552;48.120;-1.456;2023-08-07T05:30:03;9.00;99.90
16871;DHT22;8552;48.120;-1.456;2023-08-07T05:32:29;9.00;99.90
16871;DHT22;8552;48.120;-1.456;2023-08-07T05:34:55;9.10;99.90
16871;DHT22;8552;48.120;-1.456;2023-08-07T05:37:21;9.10;99.90
16871;DHT22;8552;48.120;-1.456;2023-08-07T05:39:46;9.20;99.90
16871;DHT22;8552;48.120;-1.456;2023-08-07T05:42:12;9.20;99.90
16871;DHT22;8552;48.120;-1.456;2023-08-07T05:44:38;9.20;99.90
16871;DHT22;8552;48.120;-1.456;2023-08-07T05:47:04;9.30;99.90
16871;DHT22;8552;48.120;-1.456;2023-08-07T05:49:30;9.40;99.90
16871;DHT22;8552;48.120;-1.456;2023-08-07T05:51:56;9.40;99.90
16871;DHT22;8552;48.120;-1.456;2023-08-07T05:54:22;9.50;99.90
16871;DHT22;8552;48.120;-1.456;2023-08-07T05:56:48;9.60;99.90
16871;DHT22;8552;48.120;-1.456;2023-08-07T05:59:14;9.70;99.90
16871;DHT22;8552;48.120;-1.456;2023-08-07T06:01:40;9.80;99.90
16871;DHT22;8552;48.120;-1.456;2023-08-07T06:04:06;9.90;99.90
16871;DHT22;8552;48.120;-1.456;2023-08-07T06:06:32;10.00;99.90
16871;DHT22;8552;48.120;-1.456;2023-08-07T06:09:00;10.00;99.90
16871;DHT22;8552;48.120;-1.456;2023-08-07T06:11:27;10.20;99.90
16871;DHT22;8552;48.120;-1.456;2023-08-07T06:13:53;10.30;99.90
16871;DHT22;8552;48.120;-1.456;2023-08-07T06:16:19;10.40;99.90
16871;DHT22;8552;48.120;-1.456;2023-08-07T06:18:45;10.50;99.90
16871;DHT22;8552;48.120;-1.456;2023-08-07T06:21:11;10.60;99.90
16871;DHT22;8552;48.120;-1.456;2023-08-07T06:23:37;10.70;99.90
16871;DHT22;8552;48.120;-1.456;2023-08-07T06:26:03;10.90;99.90
16871;DHT22;8552;48.120;-1.456;2023-08-07T06:28:34;11.00;99.90
16871;DHT22;8552;48.120;-1.456;2023-08-07T06:31:08;11.10;99.90
16871;DHT22;8552;48.120;-1.456;2023-08-07T06:33:34;11.20;99.90
16871;DHT22;8552;48.120;-1.456;2023-08-07T06:36:00;11.30;99.90
16871;DHT22;8552;48.120;-1.456;2023-08-07T06:38:26;11.50;99.90
16871;DHT22;8552;48.120;-1.456;2023-08-07T06:40:52;11.60;99.90
16871;DHT22;8552;48.120;-1.456;2023-08-07T06:43:17;11.70;99.90
16871;DHT22;8552;48.120;-1.456;2023-08-07T06:45:46;11.80;99.90
16871;DHT22;8552;48.120;-1.456;2023-08-07T06:48:12;11.90;99.90
16871;DHT22;8552;48.120;-1.456;2023-08-07T06:50:37;12.10;99.90
16871;DHT22;8552;48.120;-1.456;2023-08-07T06:53:03;12.20;99.90
16871;DHT22;8552;48.120;-1.456;2023-08-07T06:55:29;12.20;99.90
16871;DHT22;8552;48.120;-1.456;2023-08-07T06:57:54;12.40;99.90
16871;DHT22;8552;48.120;-1.456;2023-08-07T07:00:20;12.40;99.90
16871;DHT22;8552;48.120;-1.456;2023-08-07T07:02:46;12.60;99.90
16871;DHT22;8552;48.120;-1.456;2023-08-07T07:05:11;12.80;99.90
16871;DHT22;8552;48.120;-1.456;2023-08-07T07:07:38;12.90;99.90
16871;DHT22;8552;48.120;-1.456;2023-08-07T07:10:04;13.10;99.90
16871;DHT22;8552;48.120;-1.456;2023-08-07T07:12:30;13.30;99.90
16871;DHT22;8552;48.120;-1.456;2023-08-07T07:14:55;13.40;99.90
16871;DHT22;8552;48.120;-1.456;2023-08-07T07:17:21;13.50;99.90
16871;DHT22;8552;48.120;-1.456;2023-08-07T07:19:47;13.70;99.90
16871;DHT22;8552;48.120;-1.456;2023-08-07T07:22:12;13.90;99.90
16871;DHT22;8552;48.120;-1.456;2023-08-07T07:24:38;14.00;99.90
16871;DHT22;8552;48.120;-1.456;2023-08-07T07:27:04;14.20;99.90
16871;DHT22;8552;48.120;-1.456;2023-08-07T07:29:30;14.40;99.90
16871;DHT22;8552;48.120;-1.456;2023-08-07T07:31:56;14.50;99.90
16871;DHT22;8552;48.120;-1.456;2023-08-07T07:34:22;14.60;99.90
16871;DHT22;8552;48.120;-1.456;2023-08-07T07:36:48;14.70;99.90
16871;DHT22;8552;48.120;-1.456;2023-08-07T07:39:13;14.80;99.90
16871;DHT22;8552;48.120;-1.456;2023-08-07T07:41:39;14.90;99.90
16871;DHT22;8552;48.120;-1.456;2023-08-07T07:44:05;15.00;99.90
16871;DHT22;8552;48.120;-1.456;2023-08-07T07:46:31;15.10;99.90
16871;DHT22;8552;48.120;-1.456;2023-08-07T07:48:58;15.10;99.90
16871;DHT22;8552;48.120;-1.456;2023-08-07T07:51:24;15.00;99.90
16871;DHT22;8552;48.120;-1.456;2023-08-07T07:53:50;15.10;99.90
16871;DHT22;8552;48.120;-1.456;2023-08-07T07:56:16;15.10;99.90
16871;DHT22;8552;48.120;-1.456;2023-08-07T07:58:42;15.30;99.90
16871;DHT22;8552;48.120;-1.456;2023-08-07T08:01:09;15.40;99.90
16871;DHT22;8552;48.120;-1.456;2023-08-07T08:03:35;15.60;99.90
16871;DHT22;8552;48.120;-1.456;2023-08-07T08:06:00;15.80;99.90
16871;DHT22;8552;48.120;-1.456;2023-08-07T08:08:26;15.90;99.90
16871;DHT22;8552;48.120;-1.456;2023-08-07T08:10:52;16.10;99.90
16871;DHT22;8552;48.120;-1.456;2023-08-07T08:13:18;16.30;99.90
16871;DHT22;8552;48.120;-1.456;2023-08-07T08:15:44;16.30;99.90
16871;DHT22;8552;48.120;-1.456;2023-08-07T08:18:10;16.40;99.90
16871;DHT22;8552;48.120;-1.456;2023-08-07T08:20:37;16.50;99.90
16871;DHT22;8552;48.120;-1.456;2023-08-07T08:23:03;16.70;99.90
16871;DHT22;8552;48.120;-1.456;2023-08-07T08:25:29;16.90;99.90
16871;DHT22;8552;48.120;-1.456;2023-08-07T08:27:55;17.00;99.90
16871;DHT22;8552;48.120;-1.456;2023-08-07T08:30:21;17.10;99.90
16871;DHT22;8552;48.120;-1.456;2023-08-07T08:32:47;17.20;99.90
16871;DHT22;8552;48.120;-1.456;2023-08-07T08:35:13;17.30;99.90
16871;DHT22;8552;48.120;-1.456;2023-08-07T08:37:39;17.40;99.90
16871;DHT22;8552;48.120;-1.456;2023-08-07T08:40:06;17.50;99.90
16871;DHT22;8552;48.120;-1.456;2023-08-07T08:42:34;17.20;99.90
16871;DHT22;8552;48.120;-1.456;2023-08-07T08:45:01;17.30;99.90
16871;DHT22;8552;48.120;-1.456;2023-08-07T08:47:29;17.50;99.90
16871;DHT22;8552;48.120;-1.456;2023-08-07T08:50:10;17.60;99.90
16871;DHT22;8552;48.120;-1.456;2023-08-07T08:52:38;17.80;99.90
16871;DHT22;8552;48.120;-1.456;2023-08-07T08:55:04;17.80;99.90
16871;DHT22;8552;48.120;-1.456;2023-08-07T08:57:30;18.10;99.90
16871;DHT22;8552;48.120;-1.456;2023-08-07T08:59:58;18.30;99.90
16871;DHT22;8552;48.120;-1.456;2023-08-07T09:02:25;18.30;99.90
16871;DHT22;8552;48.120;-1.456;2023-08-07T09:04:51;18.50;99.90
16871;DHT22;8552;48.120;-1.456;2023-08-07T09:07:20;18.70;99.90
16871;DHT22;8552;48.120;-1.456;2023-08-07T09:09:47;18.50;99.90
16871;DHT22;8552;48.120;-1.456;2023-08-07T09:12:26;18.50;99.90
16871;DHT22;8552;48.120;-1.456;2023-08-07T09:14:57;18.50;99.90
16871;DHT22;8552;48.120;-1.456;2023-08-07T09:17:28;18.70;99.90
16871;DHT22;8552;48.120;-1.456;2023-08-07T09:19:54;18.90;99.90
16871;DHT22;8552;48.120;-1.456;2023-08-07T09:22:21;19.10;99.90
16871;DHT22;8552;48.120;-1.456;2023-08-07T09:24:47;19.30;99.90
16871;DHT22;8552;48.120;-1.456;2023-08-07T09:27:13;19.40;99.90
16871;DHT22;8552;48.120;-1.456;2023-08-07T09:29:43;19.60;99.90
16871;DHT22;8552;48.120;-1.456;2023-08-07T09:32:12;19.80;99.90
16871;DHT22;8552;48.120;-1.456;2023-08-07T09:34:42;20.00;99.90
16871;DHT22;8552;48.120;-1.456;2023-08-07T09:37:09;20.30;99.90
16871;DHT22;8552;48.120;-1.456;2023-08-07T09:39:36;20.20;99.90
16871;DHT22;8552;48.120;-1.456;2023-08-07T09:42:03;20.20;99.90
16871;DHT22;8552;48.120;-1.456;2023-08-07T09:44:38;20.10;99.90
16871;DHT22;8552;48.120;-1.456;2023-08-07T09:47:17;20.10;99.90
16871;DHT22;8552;48.120;-1.456;2023-08-07T09:49:44;20.00;99.90
16871;DHT22;8552;48.120;-1.456;2023-08-07T09:52:11;20.30;99.90
16871;DHT22;8552;48.120;-1.456;2023-08-07T09:54:38;20.70;99.90
16871;DHT22;8552;48.120;-1.456;2023-08-07T09:57:05;20.80;99.90
16871;DHT22;8552;48.120;-1.456;2023-08-07T09:59:34;20.90;99.90
16871;DHT22;8552;48.120;-1.456;2023-08-07T10:02:03;21.20;99.90
16871;DHT22;8552;48.120;-1.456;2023-08-07T10:04:30;21.10;99.90
16871;DHT22;8552;48.120;-1.456;2023-08-07T10:06:57;20.90;99.90
16871;DHT22;8552;48.120;-1.456;2023-08-07T10:09:23;21.00;99.90
16871;DHT22;8552;48.120;-1.456;2023-08-07T10:11:49;21.30;99.90
16871;DHT22;8552;48.120;-1.456;2023-08-07T10:14:16;21.50;99.90
16871;DHT22;8552;48.120;-1.456;2023-08-07T10:16:42;21.70;99.90
16871;DHT22;8552;48.120;-1.456;2023-08-07T10:19:08;21.70;99.90
16871;DHT22;8552;48.120;-1.456;2023-08-07T10:21:39;21.90;99.90
16871;DHT22;8552;48.120;-1.456;2023-08-07T10:24:06;22.10;99.90
16871;DHT22;8552;48.120;-1.456;2023-08-07T10:26:33;22.30;99.90
16871;DHT22;8552;48.120;-1.456;2023-08-07T10:29:02;22.50;99.90
16871;DHT22;8552;48.120;-1.456;2023-08-07T10:31:30;22.70;99.90
16871;DHT22;8552;48.120;-1.456;2023-08-07T10:33:57;22.80;99.00
16871;DHT22;8552;48.120;-1.456;2023-08-07T10:36:23;22.90;99.90
16871;DHT22;8552;48.120;-1.456;2023-08-07T10:39:09;23.20;98.80
16871;DHT22;8552;48.120;-1.456;2023-08-07T10:41:39;23.50;97.90
16871;DHT22;8552;48.120;-1.456;2023-08-07T10:44:20;23.10;97.00
16871;DHT22;8552;48.120;-1.456;2023-08-07T10:46:54;22.90;96.20
16871;DHT22;8552;48.120;-1.456;2023-08-07T10:49:46;23.10;98.40
16871;DHT22;8552;48.120;-1.456;2023-08-07T10:52:13;23.20;95.20
16871;DHT22;8552;48.120;-1.456;2023-08-07T10:54:49;23.20;95.30
16871;DHT22;8552;48.120;-1.456;2023-08-07T10:57:17;23.60;95.80
16871;DHT22;8552;48.120;-1.456;2023-08-07T11:02:23;23.70;93.90
16871;DHT22;8552;48.120;-1.456;2023-08-07T11:04:52;23.80;94.00
16871;DHT22;8552;48.120;-1.456;2023-08-07T11:07:29;24.30;95.20
16871;DHT22;8552;48.120;-1.456;2023-08-07T11:09:55;24.20;90.00
16871;DHT22;8552;48.120;-1.456;2023-08-07T11:12:25;24.10;91.40
16871;DHT22;8552;48.120;-1.456;2023-08-07T11:14:52;24.30;91.80
16871;DHT22;8552;48.120;-1.456;2023-08-07T11:17:18;24.40;90.10
16871;DHT22;8552;48.120;-1.456;2023-08-07T11:19:47;24.40;90.30
16871;DHT22;8552;48.120;-1.456;2023-08-07T11:22:15;24.80;87.90
16871;DHT22;8552;48.120;-1.456;2023-08-07T11:24:45;25.00;87.70
16871;DHT22;8552;48.120;-1.456;2023-08-07T11:27:11;25.30;87.70
16871;DHT22;8552;48.120;-1.456;2023-08-07T11:29:37;25.00;82.90
16871;DHT22;8552;48.120;-1.456;2023-08-07T11:32:03;25.60;88.90
16871;DHT22;8552;48.120;-1.456;2023-08-07T11:34:29;25.30;84.90
16871;DHT22;8552;48.120;-1.456;2023-08-07T11:36:54;24.90;81.80
16871;DHT22;8552;48.120;-1.456;2023-08-07T11:39:21;24.50;86.20
16871;DHT22;8552;48.120;-1.456;2023-08-07T11:41:47;24.50;87.30
16871;DHT22;8552;48.120;-1.456;2023-08-07T11:44:13;24.30;87.10
16871;DHT22;8552;48.120;-1.456;2023-08-07T11:46:40;24.10;85.40
16871;DHT22;8552;48.120;-1.456;2023-08-07T11:49:07;24.20;86.60
16871;DHT22;8552;48.120;-1.456;2023-08-07T11:51:35;24.40;88.60
16871;DHT22;8552;48.120;-1.456;2023-08-07T11:54:01;24.50;83.80
16871;DHT22;8552;48.120;-1.456;2023-08-07T11:56:30;24.60;88.90
16871;DHT22;8552;48.120;-1.456;2023-08-07T11:58:57;24.90;86.80
16871;DHT22;8552;48.120;-1.456;2023-08-07T12:01:25;24.70;80.50
16871;DHT22;8552;48.120;-1.456;2023-08-07T12:06:17;25.30;81.00
16871;DHT22;8552;48.120;-1.456;2023-08-07T12:08:43;25.50;80.40
16871;DHT22;8552;48.120;-1.456;2023-08-07T12:11:12;25.70;80.30
16871;DHT22;8552;48.120;-1.456;2023-08-07T12:13:40;25.60;76.60
16871;DHT22;8552;48.120;-1.456;2023-08-07T12:16:07;25.50;82.90
16871;DHT22;8552;48.120;-1.456;2023-08-07T12:18:34;25.50;79.60
16871;DHT22;8552;48.120;-1.456;2023-08-07T12:21:06;25.30;78.20
16871;DHT22;8552;48.120;-1.456;2023-08-07T12:23:36;25.30;81.50
16871;DHT22;8552;48.120;-1.456;2023-08-07T12:26:03;25.50;82.90
16871;DHT22;8552;48.120;-1.456;2023-08-07T12:28:32;25.70;89.30
16871;DHT22;8552;48.120;-1.456;2023-08-07T12:30:57;25.00;75.80
16871;DHT22;8552;48.120;-1.456;2023-08-07T12:33:23;25.00;79.80
16871;DHT22;8552;48.120;-1.456;2023-08-07T12:35:49;25.30;83.40
16871;DHT22;8552;48.120;-1.456;2023-08-07T12:38:15;25.50;79.90
16871;DHT22;8552;48.120;-1.456;2023-08-07T12:40:41;25.60;78.90
16871;DHT22;8552;48.120;-1.456;2023-08-07T12:43:07;25.50;79.40
16871;DHT22;8552;48.120;-1.456;2023-08-07T12:45:33;25.60;75.90
16871;DHT22;8552;48.120;-1.456;2023-08-07T12:48:00;25.50;78.60
16871;DHT22;8552;48.120;-1.456;2023-08-07T12:50:28;25.60;76.90
16871;DHT22;8552;48.120;-1.456;2023-08-07T12:52:54;25.70;76.40
16871;DHT22;8552;48.120;-1.456;2023-08-07T12:55:20;25.30;74.80
16871;DHT22;8552;48.120;-1.456;2023-08-07T12:57:45;25.30;77.70
16871;DHT22;8552;48.120;-1.456;2023-08-07T13:00:12;25.30;78.70
16871;DHT22;8552;48.120;-1.456;2023-08-07T13:02:45;25.30;75.70
16871;DHT22;8552;48.120;-1.456;2023-08-07T13:05:11;25.50;75.40
16871;DHT22;8552;48.120;-1.456;2023-08-07T13:07:38;25.70;74.10
16871;DHT22;8552;48.120;-1.456;2023-08-07T13:10:05;25.60;77.90
16871;DHT22;8552;48.120;-1.456;2023-08-07T13:12:37;25.80;76.30
16871;DHT22;8552;48.120;-1.456;2023-08-07T13:15:04;26.10;77.30
16871;DHT22;8552;48.120;-1.456;2023-08-07T13:17:31;26.20;81.30
16871;DHT22;8552;48.120;-1.456;2023-08-07T13:19:59;26.40;75.10
16871;DHT22;8552;48.120;-1.456;2023-08-07T13:22:26;26.60;74.50
16871;DHT22;8552;48.120;-1.456;2023-08-07T13:24:52;26.60;73.80
16871;DHT22;8552;48.120;-1.456;2023-08-07T13:27:18;26.60;74.10
16871;DHT22;8552;48.120;-1.456;2023-08-07T13:29:44;26.70;74.60
16871;DHT22;8552;48.120;-1.456;2023-08-07T13:32:10;26.80;72.10
16871;DHT22;8552;48.120;-1.456;2023-08-07T13:34:36;26.60;71.00
16871;DHT22;8552;48.120;-1.456;2023-08-07T13:37:04;26.80;73.80
16871;DHT22;8552;48.120;-1.456;2023-08-07T13:39:29;26.50;75.60
16871;DHT22;8552;48.120;-1.456;2023-08-07T13:41:55;26.90;70.60
16871;DHT22;8552;48.120;-1.456;2023-08-07T13:44:21;26.90;69.70
16871;DHT22;8552;48.120;-1.456;2023-08-07T13:46:48;27.20;74.00
16871;DHT22;8552;48.120;-1.456;2023-08-07T13:49:14;27.10;71.60
16871;DHT22;8552;48.120;-1.456;2023-08-07T13:51:40;27.10;68.30
16871;DHT22;8552;48.120;-1.456;2023-08-07T13:54:06;27.10;70.80
16871;DHT22;8552;48.120;-1.456;2023-08-07T13:56:33;27.40;69.40
16871;DHT22;8552;48.120;-1.456;2023-08-07T13:58:59;27.50;68.80
16871;DHT22;8552;48.120;-1.456;2023-08-07T14:01:25;27.40;69.80
16871;DHT22;8552;48.120;-1.456;2023-08-07T14:03:51;27.20;68.10
16871;DHT22;8552;48.120;-1.456;2023-08-07T14:06:17;27.40;66.90
16871;DHT22;8552;48.120;-1.456;2023-08-07T14:08:43;27.70;70.60
16871;DHT22;8552;48.120;-1.456;2023-08-07T14:11:08;27.50;70.40
16871;DHT22;8552;48.120;-1.456;2023-08-07T14:13:34;27.30;68.40
16871;DHT22;8552;48.120;-1.456;2023-08-07T14:16:00;27.00;67.30
16871;DHT22;8552;48.120;-1.456;2023-08-07T14:18:25;27.30;70.10
16871;DHT22;8552;48.120;-1.456;2023-08-07T14:20:52;27.20;70.20
16871;DHT22;8552;48.120;-1.456;2023-08-07T14:23:18;27.60;72.70
16871;DHT22;8552;48.120;-1.456;2023-08-07T14:25:44;28.00;73.10
16871;DHT22;8552;48.120;-1.456;2023-08-07T14:28:10;28.40;68.80
16871;DHT22;8552;48.120;-1.456;2023-08-07T14:30:36;28.70;68.30
16871;DHT22;8552;48.120;-1.456;2023-08-07T14:33:02;28.50;63.90
16871;DHT22;8552;48.120;-1.456;2023-08-07T14:35:28;28.20;66.40
16871;DHT22;8552;48.120;-1.456;2023-08-07T14:37:53;28.20;65.50
16871;DHT22;8552;48.120;-1.456;2023-08-07T14:40:19;28.50;67.40
16871;DHT22;8552;48.120;-1.456;2023-08-07T14:42:47;28.30;68.30
16871;DHT22;8552;48.120;-1.456;2023-08-07T14:45:13;28.40;67.40
16871;DHT22;8552;48.120;-1.456;2023-08-07T14:47:40;28.30;63.40
16871;DHT22;8552;48.120;-1.456;2023-08-07T14:50:06;28.00;65.00
16871;DHT22;8552;48.120;-1.456;2023-08-07T14:52:32;27.90;65.70
16871;DHT22;8552;48.120;-1.456;2023-08-07T14:54:57;27.40;65.00
16871;DHT22;8552;48.120;-1.456;2023-08-07T14:57:24;27.20;62.60
16871;DHT22;8552;48.120;-1.456;2023-08-07T14:59:49;27.30;64.90
16871;DHT22;8552;48.120;-1.456;2023-08-07T15:02:15;27.10;66.50
16871;DHT22;8552;48.120;-1.456;2023-08-07T15:04:41;26.80;65.80
16871;DHT22;8552;48.120;-1.456;2023-08-07T15:07:07;26.80;66.20
16871;DHT22;8552;48.120;-1.456;2023-08-07T15:09:32;26.70;65.00
16871;DHT22;8552;48.120;-1.456;2023-08-07T15:11:58;26.80;65.50
16871;DHT22;8552;48.120;-1.456;2023-08-07T15:14:24;26.50;69.90
16871;DHT22;8552;48.120;-1.456;2023-08-07T15:16:49;26.60;68.50
16871;DHT22;8552;48.120;-1.456;2023-08-07T15:19:15;26.60;65.50
16871;DHT22;8552;48.120;-1.456;2023-08-07T15:21:41;26.40;69.60
16871;DHT22;8552;48.120;-1.456;2023-08-07T15:24:07;26.20;69.50
16871;DHT22;8552;48.120;-1.456;2023-08-07T15:26:33;26.30;68.50
16871;DHT22;8552;48.120;-1.456;2023-08-07T15:28:59;25.80;65.30
16871;DHT22;8552;48.120;-1.456;2023-08-07T15:31:24;25.80;72.10
16871;DHT22;8552;48.120;-1.456;2023-08-07T15:33:50;26.00;72.50
16871;DHT22;8552;48.120;-1.456;2023-08-07T15:36:18;26.20;71.50
16871;DHT22;8552;48.120;-1.456;2023-08-07T15:38:44;25.90;71.90
16871;DHT22;8552;48.120;-1.456;2023-08-07T15:41:12;25.70;71.80